默认 日期 大小 文件数 浏览量 最新下载 xml
drag磁力链接相关资源由用户搜索指令自动获取,结果来源于网络,本站不存储任何资料,亦不承担任何责任,请于24小时内删除,搜索到8092个磁力,显示前4000条数据,用时5ms。
    ... .Speed.cd.txt": 97, "rupauls.drag.race.s01e03.720p.webrip.x264 ... -secretos.mkv": 1055423026, "rupauls.drag.race.s01e03.720p.webrip.x264 ...
创建时间: 2018-12-16 06:34:49 大小:1010.76 MB 文件数量:7 热度:5 最近下载:2022-04-23 06:04:13
    {"Dragées au poivre.avi": 1595076608, "Dragées au poivre.srt": 105505}
创建时间: 2018-12-16 07:16:13 大小:1.49 GB 文件数量:2 热度:6 最近下载:2022-04-23 06:02:46
    ... torrentgalaxy.org .txt": 691, "rupauls.drag.race.all.stars.s04e01.web ...
创建时间: 2018-12-16 07:56:38 大小:773.06 MB 文件数量:7 热度:5 最近下载:2022-04-23 06:01:31
    {"DESCARGA POR TORRENT.txt": 261, "Como.entrenar.a.tu.dragón.Gift.of.the.Night.Fury.720p.Blueray.dual lat.ing.RUEDAS.mkv": 598021431, "Como.entrenar.a.tu.dragón.Gift.of.the.Night.Fury.720p.Blueray.dual lat.ing.RUEDAS.srt": 17573}
创建时间: 2018-12-16 09:10:41 大小:570.33 MB 文件数量:3 热度:19 最近下载:2025-04-04 04:43:02
    {"RuPauls.Drag.Race.21.1-2.Moments.That.Made.Us.Gag.720p-fabutrash.mp4": 539480084, "RuPauls.Drag.Race.21.1-2.Moments.That.Made.Us.Gag.720p-fabutrash.txt": 719}
创建时间: 2018-12-16 13:26:21 大小:514.49 MB 文件数量:2 热度:5 最近下载:2022-04-23 07:03:24
    {"RuPauls.Drag.Race.S09E00.Meet.the.Queens.1080p.WEBRip.AAC2.0.x264-AKU.mkv": 828020939, "RuPauls.Drag.Race.S09E00.Meet.the.Queens.1080p.WEBRip.AAC2.0.x264-AKU.nfo": 455}
创建时间: 2018-12-16 15:37:31 大小:789.66 MB 文件数量:2 热度:7 最近下载:2022-04-23 07:05:15
    ... -[SAMAS].mp4": 2175969000, "RuPaul's Drag Race All Stars - S04E01 - All ... ].en.srt": 99898, "RuPaul's Drag Race All Stars - S04E01 - All ... ].es.srt": 95452, "RuPaul's Drag Race All Stars - S04E01 - All ... fr.srt": 96412, "RuPaul's Drag Race All Stars - S04E01 - All ...
创建时间: 2018-12-16 16:59:22 大小:2.03 GB 文件数量:5 热度:20 最近下载:2025-09-17 07:37:17
    {"RARBG.txt": 30, "rupauls.drag.race.all.stars.s04e01.web.x264-secretos.mkv": 806688903, "rupauls.drag.race.all.stars.s04e01.web.x264-secretos.nfo": 64}
创建时间: 2018-12-16 18:00:16 大小:769.32 MB 文件数量:3 热度:5 最近下载:2022-04-23 05:45:42
    ... -back-large.jpg": 297377, "00 - Drag-On_The_Crazies_3-front-large.jpg": 413143 ... -back-large.jpg": 284186, "00 - Drag-On_The_Crazies_Pt_2-front-large.jpg": 480145 ... Of Individualz).mp3": 4610808, "00 - Drag-On_Lions_And_Tigers_And_Bears-front-large.jpg": 136820 ...
创建时间: 2018-12-17 01:11:59 大小:500.01 MB 文件数量:203 热度:14 最近下载:2025-09-15 17:05:15
    ... .torrenting.me.txt": 79, "RuPauls.Drag.Race.S09E12.Category.Is.720p ... .264-NTb.mkv": 1298236250, "RuPauls.Drag.Race.S09E12.Category.Is.720p ...
创建时间: 2018-12-17 02:29:34 大小:1.21 GB 文件数量:7 热度:6 最近下载:2024-07-01 16:16:01
    ... 1666725867, "RuPauls.Drag.Race.S05E102.Drag.Center.Recap.1080p.WEB ... mp4": 1670445893, "RuPauls.Drag.Race.S05E09.Drama.Queens. ... mp4": 1678334327, "RuPauls.Drag.Race.S05E10.Super.Troopers.Untucked ... mp4": 1677216999, "RuPauls.Drag.Race.S05E02.Lip.Synch. ...
创建时间: 2018-12-17 07:45:00 大小:34.14 GB 文件数量:28 热度:7 最近下载:2022-04-23 06:16:37
    {"RARBG.txt": 30, "rupauls.drag.race.all.stars.s04e01.720p.web.x264-secretos.mkv": 1263292835, "rupauls.drag.race.all.stars.s04e01.720p.web.x264-secretos.nfo": 69}
创建时间: 2018-12-17 11:40:07 大小:1.18 GB 文件数量:3 热度:5 最近下载:2022-04-23 06:35:25
    {"RARBG.txt": 30, "mysteries.at.the.museum.s20e09.lord.lucan.worlds.greatest.drag.racer.hdtv.x264-w4f.mkv": 324353468, "mysteries.at.the.museum.s20e09.lord.lucan.worlds.greatest.drag.racer.hdtv.x264-w4f.nfo": 5699}
创建时间: 2018-12-17 13:06:01 大小:309.33 MB 文件数量:3 热度:8 最近下载:2025-09-19 08:04:05
    {"RARBG.txt": 30, "rupauls.drag.race.s10e05.720p.web.x264-secretos.mkv": 1695667073, "rupauls.drag.race.s10e05.720p.web.x264-secretos.nfo": 59}
创建时间: 2018-12-17 13:55:46 大小:1.58 GB 文件数量:3 热度:4 最近下载:2022-04-23 05:50:05
    {"RuPauls.Drag.Race.S06E12.1080p-fabutrash.mp4": 1573258461, "RuPauls.Drag.Race.S06E12.1080p-fabutrash.txt": 1151}
创建时间: 2018-12-17 16:47:01 大小:1.47 GB 文件数量:2 热度:5 最近下载:2022-04-23 06:06:42
    {"Sub.Eng.Theatrical Cut.srt": 79988, "Sub.Rus.Theatrical Cut.srt": 67002, "Drag.Me.to.Hell.2009.TC.2009.XviD.Ac3.Rus.End.HDRip.1.45.avi": 1562488832}
创建时间: 2018-12-17 18:24:42 大小:1.46 GB 文件数量:3 热度:5 最近下载:2022-04-23 05:54:13
    ... .TORRENTING.COM.txt": 84, "rupauls.drag.race.s04e07.internal.web.x264 ... -secretos.mkv": 543315635, "rupauls.drag.race.s04e07.internal.web.x264 ...
创建时间: 2018-12-17 18:32:11 大小:521.35 MB 文件数量:7 热度:7 最近下载:2024-07-16 23:25:02
    {"RuPaul's Drag Race, S07E10, Untucked [720p].mp4": 374936225, "RuPaul's Drag Race, S07E10-Prancing Queens [720p].mp4": 1052194723}
创建时间: 2018-12-17 20:23:12 大小:1.33 GB 文件数量:2 热度:5 最近下载:2022-04-23 05:47:30
    ... .remastered.hun.ac3": 332037888, "drag.me.to.hell.remastered.hun ... .forced.srt": 1442}, "sample": {"drag.me.to.hell.remastered.720p ... -nibe.sample.mkv": 82161424}, "drag.me.to.hell.remastered.720p ... -nibe.mkv": 6195828357, "drag.me.to.hell.remastered.720p ...
创建时间: 2018-12-17 23:05:19 大小:6.16 GB 文件数量:6 热度:6 最近下载:2022-04-23 06:33:33
    {"RuPaul's Drag Race, S07E04, Untucked [720p].mp4": 369515921, "RuPaul's Drag Race, S07E03-Spoof! (There It Is) [720p].mp4": 861100958}
创建时间: 2018-12-18 01:31:03 大小:1.15 GB 文件数量:2 热度:6 最近下载:2022-04-23 06:55:05